Hadley Wood, United Kingdom
Current Conditions -  °F | °C
As of 6:50 PM on Tuesday 21 Oct 2014 (Local Time) from EGWU Reporting Station
Few Clouds Few Clouds  
Wind Chill: 50°   Ceiling: Unl
Heat Index: 50°   Visibility: 6mi
Dew Point: 34°   Wind: 20mph
Humidity: 54%   Direction: 300°WNW
Pressure: 29.94"   Gusts: 33mph
Location:  51.67°N, 0.17°W
Report Text: EGWU 211750Z 30017G29KT 9999 FEW035 10/01 Q1014 NOSIG
Loading
Personal Weather Stations






























Interactive Weather Map
Tropical Storm Tracking
New forecast layout! Learn more

10-Day Weather Forecast

Advertisements
Track Severe Weather on mobile